createdAt,value
2019-03-12T00:00:13.927Z,28.37
2019-03-12T00:02:40.495Z,27.60
2019-03-12T00:05:07.095Z,26.03
2019-03-12T00:07:33.662Z,26.77
2019-03-12T00:10:00.420Z,24.03
2019-03-12T00:12:27.015Z,25.93
2019-03-12T00:14:53.622Z,30.60
2019-03-12T00:17:20.209Z,28.00
2019-03-12T00:19:46.804Z,27.30
2019-03-12T00:22:13.382Z,26.00
2019-03-12T00:24:39.984Z,26.10
2019-03-12T00:27:06.554Z,32.70
2019-03-12T00:29:33.138Z,27.73
2019-03-12T00:31:59.710Z,24.27
2019-03-12T00:34:26.288Z,24.67
2019-03-12T00:36:52.860Z,26.20
2019-03-12T00:39:19.448Z,25.67
2019-03-12T00:41:46.013Z,21.07
2019-03-12T00:44:12.592Z,20.83
2019-03-12T00:46:39.287Z,25.07
2019-03-12T00:49:05.857Z,23.80
2019-03-12T00:51:32.437Z,20.40
2019-03-12T00:53:59.011Z,19.77
2019-03-12T00:56:25.579Z,26.07
2019-03-12T00:58:52.162Z,24.07
2019-03-12T01:01:18.732Z,21.50
2019-03-12T01:03:45.299Z,23.70
2019-03-12T01:06:11.882Z,23.83
2019-03-12T01:08:38.458Z,19.10
2019-03-12T01:11:05.036Z,18.30
2019-03-12T01:13:31.609Z,14.77
2019-03-12T01:15:58.187Z,13.20
2019-03-12T01:18:24.757Z,18.40
2019-03-12T01:20:51.334Z,11.40
2019-03-12T01:23:17.903Z,14.73
2019-03-12T01:25:44.491Z,13.80
2019-03-12T01:28:11.061Z,11.07
2019-03-12T01:30:37.632Z,10.70
2019-03-12T01:33:04.204Z,9.07
2019-03-12T01:35:30.790Z,10.47
2019-03-12T01:37:57.359Z,12.20
2019-03-12T01:40:23.938Z,14.93
2019-03-12T01:42:52.572Z,10.50
2019-03-12T01:45:18.799Z,9.20
2019-03-12T01:47:45.370Z,12.23
2019-03-12T01:50:11.941Z,10.30
2019-03-12T01:52:38.541Z,11.13
2019-03-12T01:55:05.116Z,8.73
2019-03-12T01:57:31.735Z,7.23
2019-03-12T01:59:58.292Z,10.67
2019-03-12T02:02:24.907Z,11.70
2019-03-12T02:04:51.505Z,8.10
2019-03-12T02:07:18.108Z,9.47
2019-03-12T02:09:44.690Z,9.17
2019-03-12T02:12:11.303Z,9.30
2019-03-12T02:14:37.872Z,9.30
2019-03-12T02:17:04.480Z,7.20
2019-03-12T02:19:31.050Z,7.80
2019-03-12T02:21:57.645Z,11.53
2019-03-12T02:24:24.222Z,7.53
2019-03-12T02:26:50.834Z,10.77
2019-03-12T02:29:17.395Z,9.50
2019-03-12T02:31:43.981Z,10.30
2019-03-12T02:34:10.557Z,9.23
2019-03-12T02:36:37.154Z,8.27
2019-03-12T02:39:03.770Z,8.50
2019-03-12T02:41:30.440Z,11.20
2019-03-12T02:43:57.003Z,10.53
2019-03-12T02:46:23.630Z,10.43
2019-03-12T02:48:50.207Z,10.37
2019-03-12T02:51:16.819Z,11.80
2019-03-12T02:53:43.390Z,12.30
2019-03-12T02:56:09.995Z,9.40
2019-03-12T02:58:36.603Z,11.40
2019-03-12T03:01:03.194Z,11.80
2019-03-12T03:03:29.896Z,12.53
2019-03-12T03:05:56.510Z,11.67
2019-03-12T03:08:23.143Z,14.60
2019-03-12T03:10:49.728Z,15.20
2019-03-12T03:13:16.367Z,10.17
2019-03-12T03:15:42.941Z,13.57
2019-03-12T03:18:09.514Z,15.13
2019-03-12T03:20:36.087Z,13.57
2019-03-12T03:23:02.830Z,19.20
2019-03-12T03:25:29.444Z,14.03
2019-03-12T03:27:56.097Z,16.27
2019-03-12T03:30:22.741Z,14.37
2019-03-12T03:32:49.373Z,15.73
2019-03-12T03:35:15.943Z,18.43
2019-03-12T03:37:42.529Z,14.50
2019-03-12T03:40:09.114Z,14.77
2019-03-12T03:42:35.719Z,14.73
2019-03-12T03:45:02.290Z,14.87
2019-03-12T03:47:28.875Z,18.13
2019-03-12T03:49:55.456Z,17.13
2019-03-12T03:52:22.039Z,15.63
2019-03-12T03:54:48.612Z,12.70
2019-03-12T03:57:15.265Z,18.13
2019-03-12T03:59:41.971Z,19.37
2019-03-12T04:02:08.587Z,16.40
2019-03-12T04:04:35.151Z,19.40
2019-03-12T04:07:01.762Z,17.73
2019-03-12T04:09:28.399Z,19.03
2019-03-12T04:11:55.014Z,19.10
2019-03-12T04:14:21.644Z,15.97
2019-03-12T04:16:48.237Z,13.53
2019-03-12T04:19:14.811Z,16.63
2019-03-12T04:21:41.402Z,16.00
2019-03-12T04:24:07.993Z,13.27
2019-03-12T04:26:34.611Z,16.90
2019-03-12T04:29:01.174Z,18.50
2019-03-12T04:31:27.776Z,13.70
2019-03-12T04:33:54.442Z,12.17
2019-03-12T04:36:21.055Z,12.53
2019-03-12T04:38:47.631Z,13.03
2019-03-12T04:41:14.197Z,15.07
2019-03-12T04:43:40.811Z,12.17
2019-03-12T04:46:07.432Z,15.63
2019-03-12T04:48:34.016Z,10.70
2019-03-12T04:51:00.588Z,20.03
2019-03-12T04:53:27.168Z,11.63
2019-03-12T04:55:53.736Z,14.03
2019-03-12T04:58:20.304Z,11.30
2019-03-12T05:00:46.897Z,12.43
2019-03-12T05:03:13.459Z,14.87
2019-03-12T05:05:40.042Z,12.60
2019-03-12T05:08:06.613Z,13.17
2019-03-12T05:10:33.190Z,16.93
2019-03-12T05:12:59.777Z,14.47
2019-03-12T05:15:26.351Z,14.43
2019-03-12T05:17:52.916Z,16.13
2019-03-12T05:20:19.498Z,15.13
2019-03-12T05:22:46.096Z,17.57
2019-03-12T05:25:12.663Z,18.07
2019-03-12T05:27:39.264Z,11.57
2019-03-12T05:30:05.828Z,13.13
2019-03-12T05:32:32.447Z,11.13
2019-03-12T05:34:59.159Z,12.70
2019-03-12T05:37:25.763Z,13.03
2019-03-12T05:39:52.397Z,12.43
2019-03-12T05:42:19.031Z,11.87
2019-03-12T05:44:45.602Z,15.47
2019-03-12T05:47:12.206Z,15.23
2019-03-12T05:49:38.787Z,14.67
2019-03-12T05:52:05.482Z,14.70
2019-03-12T05:54:32.054Z,17.03
2019-03-12T05:56:58.699Z,12.50
2019-03-12T05:59:25.301Z,17.30
2019-03-12T06:01:51.921Z,16.70
2019-03-12T06:04:18.483Z,16.53
2019-03-12T06:06:45.055Z,14.87
2019-03-12T06:09:11.639Z,17.07
2019-03-12T06:11:38.214Z,14.50
2019-03-12T06:14:04.789Z,16.03
2019-03-12T06:16:31.385Z,16.97
2019-03-12T06:18:57.966Z,15.63
2019-03-12T06:21:24.537Z,15.83
2019-03-12T06:23:51.191Z,21.97
2019-03-12T06:26:17.766Z,21.00
2019-03-12T06:28:44.338Z,15.10
2019-03-12T06:31:10.912Z,14.97
2019-03-12T06:33:37.487Z,17.33
2019-03-12T06:36:04.056Z,14.57
2019-03-12T06:38:30.628Z,11.83
2019-03-12T06:40:57.200Z,15.20
2019-03-12T06:43:23.764Z,20.90
2019-03-12T06:45:50.338Z,17.53
2019-03-12T06:48:16.946Z,15.20
2019-03-12T06:50:43.591Z,11.57
2019-03-12T06:53:10.202Z,18.23
2019-03-12T06:55:36.783Z,15.83
2019-03-12T06:58:03.347Z,19.67
2019-03-12T07:00:30.040Z,16.03
2019-03-12T07:02:56.608Z,16.57
2019-03-12T07:05:23.188Z,17.40
2019-03-12T07:07:49.761Z,19.90
2019-03-12T07:10:16.336Z,19.03
2019-03-12T07:12:42.899Z,18.37
2019-03-12T07:15:09.478Z,18.73
2019-03-12T07:17:36.052Z,22.07
2019-03-12T07:20:02.717Z,20.50
2019-03-12T07:22:29.292Z,16.37
2019-03-12T07:24:55.865Z,13.27
2019-03-12T07:27:22.463Z,11.20
2019-03-12T07:29:49.026Z,10.50
2019-03-12T07:32:15.699Z,12.20
2019-03-12T07:34:42.263Z,7.47
2019-03-12T07:37:08.869Z,9.57
2019-03-12T07:39:35.442Z,10.97
2019-03-12T07:42:02.039Z,13.13
2019-03-12T07:44:28.608Z,10.80
2019-03-12T07:46:55.213Z,10.30
2019-03-12T07:49:21.791Z,8.67
2019-03-12T07:51:48.378Z,8.47
2019-03-12T07:54:14.950Z,9.73
2019-03-12T07:56:41.543Z,7.30
2019-03-12T07:59:09.179Z,9.13
2019-03-12T08:01:35.992Z,9.10
2019-03-12T08:04:02.598Z,6.80
2019-03-12T08:06:29.176Z,12.30
2019-03-12T08:08:55.771Z,8.33
2019-03-12T08:11:22.347Z,9.17
2019-03-12T08:13:48.936Z,9.37
2019-03-12T08:16:15.509Z,10.37
2019-03-12T08:18:42.117Z,8.30
2019-03-12T08:21:21.446Z,11.63
2019-03-12T08:23:36.992Z,10.43
2019-03-12T08:26:03.571Z,8.23
2019-03-12T08:28:30.147Z,7.33
2019-03-12T08:30:56.712Z,9.17
2019-03-12T08:33:23.275Z,8.73
2019-03-12T08:35:49.852Z,9.40
2019-03-12T08:38:16.429Z,9.37
2019-03-12T08:40:51.904Z,7.27
2019-03-12T08:43:11.296Z,7.10
2019-03-12T08:45:37.923Z,8.63
2019-03-12T08:48:04.490Z,10.30
2019-03-12T08:50:31.104Z,12.87
2019-03-12T08:52:57.770Z,10.67
2019-03-12T08:55:24.342Z,9.60
2019-03-12T08:57:50.959Z,11.37
2019-03-12T09:00:17.540Z,13.03
2019-03-12T09:02:44.136Z,12.00
2019-03-12T09:05:10.711Z,14.40
2019-03-12T09:07:37.330Z,10.72
2019-03-12T09:10:03.893Z,5.65
2019-03-12T09:12:30.501Z,7.22
2019-03-12T09:14:57.259Z,7.67
2019-03-12T09:17:23.830Z,7.70
2019-03-12T09:19:50.401Z,8.03
2019-03-12T09:22:17.072Z,9.83
2019-03-12T09:24:43.645Z,7.33
2019-03-12T09:27:10.220Z,8.83
2019-03-12T09:29:36.807Z,7.20
2019-03-12T09:32:03.379Z,10.63
2019-03-12T09:34:30.000Z,6.65
2019-03-12T09:36:56.618Z,8.63
2019-03-12T09:39:23.237Z,10.55
2019-03-12T09:41:49.810Z,12.18
2019-03-12T09:44:16.406Z,12.00
2019-03-12T09:46:42.971Z,11.18
2019-03-12T09:49:10.853Z,14.53
2019-03-12T09:51:37.485Z,11.22
2019-03-12T09:54:04.058Z,10.00
2019-03-12T09:56:30.720Z,12.78
2019-03-12T09:58:57.288Z,11.45
2019-03-12T10:01:25.685Z,9.63
2019-03-12T10:03:52.380Z,16.00
2019-03-12T10:06:18.979Z,12.68
2019-03-12T10:08:45.545Z,10.43
2019-03-12T10:11:12.126Z,15.45
2019-03-12T10:13:38.705Z,16.10
2019-03-12T10:16:05.276Z,15.20
2019-03-12T10:18:31.947Z,15.43
2019-03-12T10:20:58.502Z,14.03
2019-03-12T10:23:25.084Z,11.45
2019-03-12T10:25:51.669Z,12.88
2019-03-12T10:28:18.252Z,13.78
2019-03-12T10:30:44.829Z,7.45
2019-03-12T10:33:11.396Z,9.05
2019-03-12T10:35:37.969Z,7.75
2019-03-12T10:38:04.585Z,6.05
2019-03-12T10:40:31.163Z,5.60
2019-03-12T10:42:57.803Z,10.15
2019-03-12T10:45:24.494Z,15.30
2019-03-12T10:47:51.080Z,10.23
2019-03-12T10:50:17.676Z,10.13
2019-03-12T10:52:44.255Z,13.72
2019-03-12T10:55:13.542Z,9.58
2019-03-12T10:57:39.228Z,10.85
2019-03-12T11:00:06.092Z,10.65
2019-03-12T11:02:32.664Z,9.70
2019-03-12T11:04:59.267Z,7.53
2019-03-12T11:07:26.009Z,11.55
2019-03-12T11:09:52.619Z,6.67
2019-03-12T11:12:19.189Z,10.68
2019-03-12T11:14:45.812Z,10.30
2019-03-12T11:17:12.394Z,11.33
2019-03-12T11:19:38.998Z,10.00
2019-03-12T11:22:05.563Z,5.08
2019-03-12T11:24:32.164Z,6.30
2019-03-12T11:26:58.911Z,5.70
2019-03-12T11:29:25.521Z,5.62
2019-03-12T11:31:52.099Z,8.13
2019-03-12T11:34:18.687Z,5.37
2019-03-12T11:36:45.261Z,7.55
2019-03-12T11:39:11.927Z,7.25
2019-03-12T11:41:38.653Z,7.22
2019-03-12T11:44:05.239Z,10.05
2019-03-12T11:46:41.778Z,6.42
2019-03-12T11:49:00.261Z,10.10
2019-03-12T11:51:26.997Z,8.33
2019-03-12T11:53:53.616Z,12.03
2019-03-12T11:56:20.178Z,11.68
2019-03-12T11:58:46.972Z,10.82
2019-03-12T12:01:13.717Z,12.60
2019-03-12T12:03:40.351Z,9.78
2019-03-12T12:06:06.926Z,10.58
2019-03-12T12:08:33.514Z,7.97
2019-03-12T12:11:00.271Z,8.50
2019-03-12T12:13:26.854Z,7.05
2019-03-12T12:15:54.480Z,7.58
2019-03-12T12:18:21.052Z,5.17
2019-03-12T12:20:47.656Z,3.55
2019-03-12T12:23:14.229Z,4.92
2019-03-12T12:25:40.816Z,7.35
2019-03-12T12:28:07.389Z,5.28
2019-03-12T12:30:33.997Z,6.30
2019-03-12T12:33:00.571Z,5.08
2019-03-12T12:35:27.177Z,7.97
2019-03-12T12:37:53.744Z,3.77
2019-03-12T12:40:20.343Z,9.53
2019-03-12T12:42:46.917Z,5.92
2019-03-12T12:45:13.519Z,7.53
2019-03-12T12:47:40.092Z,7.35
2019-03-12T12:50:06.701Z,7.95
2019-03-12T12:52:33.324Z,11.68
2019-03-12T12:54:59.956Z,7.28
2019-03-12T12:57:26.532Z,5.83
2019-03-12T12:59:53.142Z,5.53
2019-03-12T13:02:19.722Z,7.10
2019-03-12T13:04:46.316Z,3.75
2019-03-12T13:07:12.894Z,8.00
2019-03-12T13:09:39.530Z,5.15
2019-03-12T13:12:06.100Z,7.15
2019-03-12T13:14:41.346Z,10.43
2019-03-12T13:17:01.017Z,6.65
2019-03-12T13:19:27.625Z,8.25
2019-03-12T13:21:54.225Z,6.92
2019-03-12T13:24:20.803Z,9.50
2019-03-12T13:26:47.370Z,10.13
2019-03-12T13:29:13.950Z,5.50
2019-03-12T13:31:40.534Z,7.12
2019-03-12T13:34:07.114Z,7.85
2019-03-12T13:36:33.699Z,5.80
2019-03-12T13:39:00.365Z,4.80
2019-03-12T13:41:27.017Z,7.90
2019-03-12T13:43:53.586Z,9.60
2019-03-12T13:46:20.169Z,8.13
2019-03-12T13:48:46.841Z,4.70
2019-03-12T13:51:13.406Z,5.97
2019-03-12T13:53:39.998Z,5.78
2019-03-12T13:56:06.657Z,6.58
2019-03-12T13:58:33.286Z,7.87
2019-03-12T14:00:59.885Z,5.08
2019-03-12T14:03:26.554Z,5.58
2019-03-12T14:05:53.137Z,4.47
2019-03-12T14:08:19.706Z,5.42
2019-03-12T14:10:46.283Z,8.43
2019-03-12T14:13:12.847Z,8.03
2019-03-12T14:15:39.447Z,5.60
2019-03-12T14:18:06.015Z,5.22
2019-03-12T14:20:32.612Z,6.12
2019-03-12T14:22:59.199Z,12.15
2019-03-12T14:25:25.789Z,8.18
2019-03-12T14:27:52.374Z,7.55
2019-03-12T14:30:19.011Z,7.80
2019-03-12T14:32:45.588Z,6.80
2019-03-12T14:35:12.202Z,9.45
2019-03-12T14:37:38.776Z,9.38
2019-03-12T14:40:05.364Z,6.95
2019-03-12T14:42:31.936Z,11.43
2019-03-12T14:44:58.529Z,5.70
2019-03-12T14:47:25.175Z,6.17
2019-03-12T14:49:51.748Z,8.53
2019-03-12T14:52:18.319Z,7.33
2019-03-12T14:54:44.904Z,10.05
2019-03-12T14:57:11.475Z,9.23
2019-03-12T14:59:38.051Z,6.10
2019-03-12T15:02:04.612Z,8.80
2019-03-12T15:04:31.190Z,6.10
2019-03-12T15:06:57.770Z,6.05
2019-03-12T15:09:24.351Z,10.20
2019-03-12T15:11:51.077Z,8.95
2019-03-12T15:14:17.646Z,7.30
2019-03-12T15:16:44.219Z,7.30
2019-03-12T15:19:10.798Z,6.30
2019-03-12T15:21:37.381Z,8.93
2019-03-12T15:24:03.976Z,7.53
2019-03-12T15:26:30.577Z,12.63
2019-03-12T15:28:57.159Z,12.50
2019-03-12T15:31:23.771Z,10.78
2019-03-12T15:33:50.345Z,8.90
2019-03-12T15:36:16.947Z,9.80
2019-03-12T15:38:43.582Z,10.63
2019-03-12T15:41:10.174Z,9.80
2019-03-12T15:43:36.927Z,14.30
2019-03-12T15:46:03.541Z,22.25
2019-03-12T15:48:30.125Z,23.45
2019-03-12T15:50:56.736Z,7.83
2019-03-12T15:53:23.303Z,7.65
2019-03-12T15:55:49.899Z,9.38
2019-03-12T15:58:16.478Z,9.50
2019-03-12T16:00:43.092Z,9.30
2019-03-12T16:03:09.675Z,9.63
2019-03-12T16:05:36.254Z,13.83
2019-03-12T16:08:02.835Z,8.55
2019-03-12T16:10:29.402Z,8.33
2019-03-12T16:12:55.973Z,11.22
2019-03-12T16:15:22.560Z,10.85
2019-03-12T16:17:49.135Z,11.08
2019-03-12T16:20:15.720Z,14.18
2019-03-12T16:22:42.314Z,9.20
2019-03-12T16:25:08.885Z,13.15
2019-03-12T16:27:35.626Z,10.68
2019-03-12T16:30:02.198Z,14.35
2019-03-12T16:32:28.813Z,12.78
2019-03-12T16:34:55.385Z,18.05
2019-03-12T16:37:21.989Z,19.77
2019-03-12T16:39:48.559Z,20.95
2019-03-12T16:42:15.169Z,22.52
2019-03-12T16:44:41.739Z,27.50
2019-03-12T16:47:08.347Z,28.85
2019-03-12T16:49:34.926Z,25.62
2019-03-12T16:52:01.548Z,18.90
2019-03-12T16:54:28.170Z,25.12
2019-03-12T16:56:55.051Z,24.85
2019-03-12T16:59:28.021Z,33.38
2019-03-12T17:02:13.130Z,39.05
2019-03-12T17:04:39.705Z,47.40
2019-03-12T17:07:06.301Z,30.90
2019-03-12T17:09:32.874Z,18.80
2019-03-12T17:11:59.470Z,26.85
2019-03-12T17:14:38.282Z,33.00
2019-03-12T17:16:55.402Z,39.78
2019-03-12T17:19:21.988Z,50.70
2019-03-12T17:21:48.602Z,44.70
2019-03-12T17:24:15.175Z,40.50
2019-03-12T17:26:41.775Z,29.75
2019-03-12T17:29:08.358Z,43.87
2019-03-12T17:31:34.964Z,43.55
2019-03-12T17:34:01.539Z,55.75
2019-03-12T17:36:28.612Z,82.82
2019-03-12T17:38:55.424Z,81.08
2019-03-12T17:41:22.027Z,104.10
2019-03-12T17:43:48.606Z,101.75
2019-03-12T17:46:15.258Z,93.00
2019-03-12T17:48:41.844Z,96.53
2019-03-12T17:51:08.419Z,87.57
2019-03-12T17:53:35.001Z,82.42
2019-03-12T17:56:01.578Z,83.25
2019-03-12T17:58:28.162Z,86.50
2019-03-12T18:00:54.731Z,79.20
2019-03-12T18:03:21.312Z,81.78
2019-03-12T18:05:47.888Z,84.28
2019-03-12T18:08:14.459Z,88.75
2019-03-12T18:10:41.044Z,75.35
2019-03-12T18:13:07.618Z,75.03
2019-03-12T18:15:34.195Z,71.30
2019-03-12T18:18:00.769Z,73.95
2019-03-12T18:20:27.341Z,58.83
2019-03-12T18:22:53.919Z,53.87
2019-03-12T18:25:20.488Z,46.70
2019-03-12T18:27:47.113Z,45.83
2019-03-12T18:30:13.680Z,61.20
2019-03-12T18:32:40.299Z,72.97
2019-03-12T18:35:06.868Z,65.43
2019-03-12T18:37:33.460Z,65.37
2019-03-12T18:40:00.029Z,59.90
2019-03-12T18:42:26.634Z,66.40
2019-03-12T18:44:53.213Z,65.00
2019-03-12T18:47:19.831Z,64.63
2019-03-12T18:49:46.428Z,80.00
2019-03-12T18:52:13.085Z,78.93
2019-03-12T18:54:39.652Z,74.20
2019-03-12T18:57:06.273Z,82.17
2019-03-12T18:59:32.842Z,69.70
2019-03-12T19:01:59.407Z,77.93
2019-03-12T19:04:25.991Z,72.07
2019-03-12T19:06:52.567Z,60.87
2019-03-12T19:09:19.143Z,65.73
2019-03-12T19:11:48.489Z,63.07
2019-03-12T19:14:14.021Z,65.60
2019-03-12T19:16:40.592Z,58.83
2019-03-12T19:19:07.161Z,68.23
2019-03-12T19:21:33.731Z,58.10
2019-03-12T19:24:00.312Z,61.87
2019-03-12T19:26:26.885Z,62.73
2019-03-12T19:28:53.454Z,59.73
2019-03-12T19:33:56.494Z,62.23
2019-03-12T19:36:23.072Z,52.07
2019-03-12T19:38:49.655Z,50.43
2019-03-12T19:41:16.232Z,50.67
2019-03-12T19:43:43.422Z,49.80
2019-03-12T19:46:10.676Z,48.93
2019-03-12T19:48:38.074Z,45.53
2019-03-12T19:51:04.647Z,46.17
2019-03-12T19:53:31.228Z,42.30
2019-03-12T19:55:57.800Z,46.83
2019-03-12T19:58:24.375Z,44.73
2019-03-12T20:00:50.943Z,49.63
2019-03-12T20:03:17.638Z,42.33
2019-03-12T20:05:44.199Z,42.87
2019-03-12T20:08:10.829Z,40.67
2019-03-12T20:10:37.396Z,47.33
2019-03-12T20:13:04.107Z,38.83
2019-03-12T20:15:30.688Z,47.63
2019-03-12T20:17:57.316Z,42.40
2019-03-12T20:20:23.913Z,42.27
2019-03-12T20:22:50.470Z,44.03
2019-03-12T20:25:17.071Z,35.20
2019-03-12T20:27:45.034Z,37.33
2019-03-12T20:30:12.005Z,34.33
2019-03-12T20:32:38.578Z,37.13
2019-03-12T20:35:05.433Z,31.43
2019-03-12T20:37:32.134Z,38.53
2019-03-12T20:39:58.768Z,36.90
2019-03-12T20:42:25.361Z,34.07
2019-03-12T20:44:51.930Z,40.27
2019-03-12T20:47:18.505Z,42.20
2019-03-12T20:49:45.079Z,35.23
2019-03-12T20:52:11.673Z,32.37
2019-03-12T20:54:38.353Z,31.80
2019-03-12T20:57:04.967Z,39.53
2019-03-12T20:59:31.573Z,28.70
2019-03-12T21:01:58.177Z,29.93
2019-03-12T21:04:24.759Z,27.50
2019-03-12T21:06:51.414Z,26.33
2019-03-12T21:09:17.992Z,24.83
2019-03-12T21:11:44.558Z,24.17
2019-03-12T21:14:11.145Z,25.77
2019-03-12T21:16:37.714Z,35.17
2019-03-12T21:19:04.301Z,33.20
2019-03-12T21:21:32.940Z,27.40
2019-03-12T21:24:01.241Z,33.80
2019-03-12T21:26:27.820Z,50.13
2019-03-12T21:28:54.446Z,38.20
2019-03-12T21:31:21.043Z,36.77
2019-03-12T21:33:47.632Z,39.57
2019-03-12T21:36:14.201Z,36.40
2019-03-12T21:38:40.780Z,42.23
2019-03-12T21:41:07.402Z,30.47
2019-03-12T21:43:35.020Z,32.37
2019-03-12T21:46:01.547Z,29.53
2019-03-12T21:48:28.123Z,33.10
2019-03-12T21:50:54.700Z,23.17
2019-03-12T21:53:21.277Z,28.00
2019-03-12T21:55:47.849Z,24.70
2019-03-12T21:58:14.413Z,25.93
2019-03-12T22:00:40.987Z,31.90
2019-03-12T22:03:07.560Z,22.50
2019-03-12T22:05:34.134Z,27.33
2019-03-12T22:08:00.708Z,24.10
2019-03-12T22:10:27.346Z,25.83
2019-03-12T22:12:53.966Z,25.73
2019-03-12T22:15:20.573Z,27.13
2019-03-12T22:17:47.167Z,29.47
2019-03-12T22:20:13.777Z,25.77
2019-03-12T22:22:40.352Z,27.57
2019-03-12T22:25:06.955Z,31.07
2019-03-12T22:27:33.534Z,30.83
2019-03-12T22:30:00.279Z,30.07
2019-03-12T22:32:27.104Z,36.03
2019-03-12T22:34:53.718Z,29.50
2019-03-12T22:37:20.284Z,30.50
2019-03-12T22:39:46.952Z,29.13
2019-03-12T22:42:13.590Z,35.87
2019-03-12T22:44:40.233Z,32.30
2019-03-12T22:47:06.813Z,29.27
2019-03-12T22:49:33.389Z,26.33
2019-03-12T22:51:59.982Z,28.53
2019-03-12T22:54:26.581Z,28.13
2019-03-12T22:56:53.151Z,25.83
2019-03-12T22:59:19.725Z,29.70
2019-03-12T23:01:46.321Z,30.23
2019-03-12T23:04:12.949Z,28.27
2019-03-12T23:06:39.559Z,23.47
2019-03-12T23:09:06.132Z,25.70
2019-03-12T23:11:32.708Z,25.33
2019-03-12T23:13:59.276Z,22.37
2019-03-12T23:16:25.849Z,26.90
2019-03-12T23:18:52.416Z,21.77
2019-03-12T23:21:19.007Z,22.03
2019-03-12T23:23:45.585Z,20.83
2019-03-12T23:26:12.201Z,28.10
2019-03-12T23:28:38.755Z,19.73
2019-03-12T23:31:05.373Z,23.07
2019-03-12T23:33:31.943Z,19.77
2019-03-12T23:35:58.525Z,20.10
2019-03-12T23:38:25.125Z,19.57
2019-03-12T23:40:51.737Z,17.77
2019-03-12T23:43:18.307Z,19.20
2019-03-12T23:45:45.852Z,19.83
2019-03-12T23:48:12.433Z,21.73
2019-03-12T23:50:39.045Z,16.50
2019-03-12T23:53:05.627Z,15.37
2019-03-12T23:55:32.205Z,14.00
2019-03-12T23:57:58.785Z,15.40
